Time;durP1;ratioP1;P1;durP2;ratioP2;P2;SDS_P1;SDS_P2;PMS_P1;PMS_P2;Temp;Humidity;BMP_temperature;BMP_pressure;BME280_temperature;BME280_humidity;BME280_pressure;Samples;Min_cycle;Max_cycle;Signal;HPM_P1;HPM_P2
2022/05/17 04:17:09;;;;;;;;;33.33;32.00;;;;;;;;6400379;46;50768;-58
2022/05/17 04:23:11;;;;;;;;;43.67;35.67;;;;;;;;6494930;39;8960;-59
2022/05/17 04:29:13;;;;;;;;;45.00;34.50;;;;;;;;6495048;39;8872;-58
2022/05/17 04:35:18;;;;;;;;;42.33;36.67;;;;;;;;6491119;39;8951;-59
2022/05/17 04:41:24;;;;;;;;;38.33;35.33;;;;;;;;6493250;39;8904;-57
2022/05/17 04:47:26;;;;;;;;;39.33;33.67;;;;;;;;6494896;39;8857;-58
2022/05/17 04:53:29;;;;;;;;;43.33;37.00;;;;;;;;6494008;39;8893;-58
2022/05/17 04:59:31;;;;;;;;;36.67;34.33;;;;;;;;6494656;39;8815;-59
2022/05/17 05:05:33;;;;;;;;;40.67;36.33;;;;;;;;6493376;46;8984;-59
2022/05/17 05:11:36;;;;;;;;;44.33;35.33;;;;;;;;6492745;39;8902;-60
2022/05/17 05:17:39;;;;;;;;;46.33;38.33;;;;;;;;6494212;31;8916;-58
2022/05/17 05:23:44;;;;;;;;;42.00;35.00;;;;;;;;6494041;39;8880;-59
2022/05/17 05:29:49;;;;;;;;;31.00;29.67;;;;;;;;6493493;46;8826;-59
2022/05/17 05:35:53;;;;;;;;;42.67;36.00;;;;;;;;6492283;46;9033;-58
2022/05/17 05:41:55;;;;;;;;;39.00;35.33;;;;;;;;6492867;31;8901;-58
2022/05/17 05:47:59;;;;;;;;;40.33;38.33;;;;;;;;6493621;39;8867;-59
2022/05/17 05:54:01;;;;;;;;;38.67;36.33;;;;;;;;6492931;39;9012;-58
2022/05/17 06:00:06;;;;;;;;;41.67;36.33;;;;;;;;6494913;31;8836;-57
2022/05/17 06:06:14;;;;;;;;;37.33;34.00;;;;;;;;6490536;39;8991;-59
2022/05/17 06:12:19;;;;;;;;;39.67;34.33;;;;;;;;6492713;39;8905;-58
2022/05/17 06:18:22;;;;;;;;;40.33;36.67;;;;;;;;6493129;39;8856;-58
2022/05/17 06:24:24;;;;;;;;;40.00;35.67;;;;;;;;6493323;39;8865;-58
2022/05/17 06:30:27;;;;;;;;;35.33;35.33;;;;;;;;6494030;46;8911;-57
2022/05/17 06:36:32;;;;;;;;;42.67;34.67;;;;;;;;6494446;39;9518;-58
2022/05/17 06:42:54;;;;;;;;;36.50;34.50;;;;;;;;6493891;46;9046;-58
2022/05/17 06:48:58;;;;;;;;;39.00;33.67;;;;;;;;6494239;46;8914;-58
2022/05/17 06:55:04;;;;;;;;;32.75;31.75;;;;;;;;6493626;39;9008;-59
2022/05/17 07:01:10;;;;;;;;;38.50;36.25;;;;;;;;6494025;46;8837;-59
2022/05/17 07:07:13;;;;;;;;;47.25;40.25;;;;;;;;6492996;39;9004;-57
2022/05/17 07:13:16;;;;;;;;;55.00;44.75;;;;;;;;6493917;46;8885;-58
2022/05/17 07:19:18;;;;;;;;;41.75;36.25;;;;;;;;6493151;46;8921;-58
2022/05/17 07:25:40;;;;;;;;;27.00;27.00;;;;;;;;6492035;31;9468;-58
2022/05/17 07:31:45;;;;;;;;;32.75;28.00;;;;;;;;6492724;39;9016;-58
2022/05/17 07:37:47;;;;;;;;;31.50;29.00;;;;;;;;6492994;31;8912;-57
2022/05/17 07:43:49;;;;;;;;;24.00;23.75;;;;;;;;6494100;39;8878;-58
2022/05/17 07:49:52;;;;;;;;;21.00;18.75;;;;;;;;6492768;46;8957;-58
2022/05/17 07:55:54;;;;;;;;;27.25;25.50;;;;;;;;6493476;39;8901;-58
2022/05/17 08:01:57;;;;;;;;;31.50;28.75;;;;;;;;6493004;39;8891;-58
2022/05/17 08:07:59;;;;;;;;;23.50;20.50;;;;;;;;6492324;39;8906;-59
2022/05/17 08:14:02;;;;;;;;;21.25;20.50;;;;;;;;6489919;39;9136;-59
2022/05/17 08:20:14;;;;;;;;;22.75;21.25;;;;;;;;6490059;31;9132;-58
2022/05/17 08:39:26;;;;;;;;;25.75;24.75;;;;;;;;6486479;39;9027;-59
2022/05/17 08:46:03;;;;;;;;;22.50;22.50;;;;;;;;6487802;46;9037;-59
2022/05/17 08:52:18;;;;;;;;;25.75;25.75;;;;;;;;6488754;46;8969;-57
2022/05/17 08:58:30;;;;;;;;;35.25;33.75;;;;;;;;6487332;46;8905;-58
2022/05/17 09:04:45;;;;;;;;;30.75;29.25;;;;;;;;6487530;46;8948;-60
2022/05/17 09:10:59;;;;;;;;;27.50;26.25;;;;;;;;6490460;31;9556;-59
2022/05/17 09:17:21;;;;;;;;;18.00;18.00;;;;;;;;6485355;39;8944;-59
2022/05/17 09:23:26;;;;;;;;;31.25;28.75;;;;;;;;6485174;46;8949;-59
2022/05/17 09:29:39;;;;;;;;;27.75;27.75;;;;;;;;6486406;46;8972;-58
2022/05/17 09:36:00;;;;;;;;;26.00;25.00;;;;;;;;6486208;39;8940;-59
2022/05/17 09:42:07;;;;;;;;;23.75;22.25;;;;;;;;6486802;47;8948;-58
2022/05/17 09:55:25;;;;;;;;;29.50;25.50;;;;;;;;6487972;31;8936;-59
2022/05/17 10:01:39;;;;;;;;;22.50;22.50;;;;;;;;6487843;39;8979;-59
2022/05/17 10:07:43;;;;;;;;;45.50;36.00;;;;;;;;6487967;39;9827;-59
2022/05/17 10:14:09;;;;;;;;;31.00;28.50;;;;;;;;6485748;39;9043;-58
2022/05/17 10:20:23;;;;;;;;;17.00;15.50;;;;;;;;6486278;39;8912;-58
2022/05/17 10:26:49;;;;;;;;;18.50;18.50;;;;;;;;6485780;31;8949;-59
2022/05/17 10:33:03;;;;;;;;;20.25;17.75;;;;;;;;6486293;31;8893;-57
2022/05/17 10:39:28;;;;;;;;;23.33;19.00;;;;;;;;6487947;39;9211;-59
2022/05/17 10:45:33;;;;;;;;;21.25;18.50;;;;;;;;6488177;39;9030;-58
2022/05/17 10:52:13;;;;;;;;;19.25;17.75;;;;;;;;6487182;39;9016;-58
2022/05/17 10:58:53;;;;;;;;;24.50;21.00;;;;;;;;6487824;39;9616;-58
2022/05/17 11:05:07;;;;;;;;;14.50;14.50;;;;;;;;6487771;46;9004;-59
2022/05/17 11:11:31;;;;;;;;;13.50;12.75;;;;;;;;6486957;31;9040;-59
2022/05/17 11:17:44;;;;;;;;;56.50;45.50;;;;;;;;6489005;39;8934;-57
2022/05/17 11:24:04;;;;;;;;;74.75;59.25;;;;;;;;6524880;36;8903;-58
2022/05/17 11:30:15;;;;;;;;;18.25;17.75;;;;;;;;6488057;39;9142;-58
2022/05/17 11:36:33;;;;;;;;;56.50;46.25;;;;;;;;6487858;39;9620;-59
2022/05/17 11:49:23;;;;;;;;;15.75;15.75;;;;;;;;6476173;39;8988;-59
2022/05/17 11:55:28;;;;;;;;;18.75;14.50;;;;;;;;6532257;36;8953;-59
2022/05/17 12:01:30;;;;;;;;;21.50;20.00;;;;;;;;6486903;39;8966;-60
2022/05/17 12:07:32;;;;;;;;;15.75;15.25;;;;;;;;6486786;46;8945;-59
2022/05/17 12:13:45;;;;;;;;;12.25;12.00;;;;;;;;6488270;39;8927;-59
2022/05/17 12:19:57;;;;;;;;;20.25;18.75;;;;;;;;6486463;46;8925;-59
2022/05/17 12:26:11;;;;;;;;;29.00;26.25;;;;;;;;6486216;39;9017;-59
2022/05/17 12:32:19;;;;;;;;;15.75;13.50;;;;;;;;6489020;31;8956;-58
2022/05/17 12:44:57;;;;;;;;;18.50;15.00;;;;;;;;6487516;39;9597;-60
2022/05/17 12:51:08;;;;;;;;;15.50;13.75;;;;;;;;6486767;39;8969;-59
2022/05/17 12:57:32;;;;;;;;;24.25;22.75;;;;;;;;6487671;39;8918;-57
2022/05/17 13:03:44;;;;;;;;;14.75;13.25;;;;;;;;6488459;31;8902;-60
2022/05/17 13:10:00;;;;;;;;;19.25;16.50;;;;;;;;6487426;39;8975;-59
2022/05/17 13:16:09;;;;;;;;;18.25;17.25;;;;;;;;6486851;46;8990;-59
2022/05/17 13:22:14;;;;;;;;;22.00;19.50;;;;;;;;6487738;39;8908;-58
2022/05/17 13:28:31;;;;;;;;;17.50;16.00;;;;;;;;6486974;39;8943;-58
2022/05/17 13:34:38;;;;;;;;;16.00;16.00;;;;;;;;6489560;46;8886;-59
2022/05/17 13:40:55;;;;;;;;;19.00;19.00;;;;;;;;6490963;39;8919;-59
2022/05/17 13:47:04;;;;;;;;;29.00;27.50;;;;;;;;6490014;39;8935;-58
2022/05/17 13:53:12;;;;;;;;;17.25;16.00;;;;;;;;6490387;31;8990;-59
2022/05/17 13:59:18;;;;;;;;;14.00;14.00;;;;;;;;6490030;39;8875;-59
2022/05/17 14:05:31;;;;;;;;;15.25;13.75;;;;;;;;6489724;39;8879;-58
2022/05/17 14:11:52;;;;;;;;;14.25;13.00;;;;;;;;6490001;39;8906;-58
2022/05/17 14:17:54;;;;;;;;;11.00;11.00;;;;;;;;6489507;31;8966;-59
2022/05/17 14:23:59;;;;;;;;;11.75;11.50;;;;;;;;6489305;39;8916;-58
2022/05/17 14:30:01;;;;;;;;;17.25;17.25;;;;;;;;6489087;39;8911;-58
2022/05/17 14:36:04;;;;;;;;;15.25;14.50;;;;;;;;6489275;47;8870;-58
2022/05/17 14:42:08;;;;;;;;;13.00;12.00;;;;;;;;6489800;39;8955;-59
2022/05/17 14:48:19;;;;;;;;;14.00;12.75;;;;;;;;6491304;39;8984;-57
2022/05/17 14:54:21;;;;;;;;;14.75;13.25;;;;;;;;6491116;39;8858;-59
2022/05/17 15:00:25;;;;;;;;;15.75;13.00;;;;;;;;6491021;31;8930;-58
2022/05/17 15:06:28;;;;;;;;;16.25;15.00;;;;;;;;6492402;39;9596;-58
2022/05/17 15:12:37;;;;;;;;;11.00;11.00;;;;;;;;6491085;39;8928;-58
2022/05/17 15:18:47;;;;;;;;;15.75;14.50;;;;;;;;6490320;39;9590;-58
2022/05/17 15:24:50;;;;;;;;;11.00;11.00;;;;;;;;6490816;39;8907;-57
2022/05/17 15:30:54;;;;;;;;;7.25;7.25;;;;;;;;6492089;31;8976;-59
2022/05/17 15:36:58;;;;;;;;;8.75;8.75;;;;;;;;6490352;46;9104;-59
2022/05/17 15:43:01;;;;;;;;;6.25;6.25;;;;;;;;6491256;39;8951;-59
2022/05/17 15:55:28;;;;;;;;;8.75;8.75;;;;;;;;6491297;39;8909;-59
2022/05/17 16:01:30;;;;;;;;;11.50;11.50;;;;;;;;6490766;46;8924;-57
2022/05/17 16:13:58;;;;;;;;;9.00;9.00;;;;;;;;6490285;39;8936;-59
2022/05/17 16:20:04;;;;;;;;;11.25;11.25;;;;;;;;6490745;46;8905;-58
2022/05/17 16:26:06;;;;;;;;;12.75;11.25;;;;;;;;6490618;39;8897;-59
2022/05/17 16:32:11;;;;;;;;;11.50;10.75;;;;;;;;6490317;46;8953;-59
2022/05/17 16:38:14;;;;;;;;;11.00;11.00;;;;;;;;6491001;46;8988;-58
2022/05/17 16:44:18;;;;;;;;;11.75;10.75;;;;;;;;6490270;31;9579;-59
2022/05/17 16:50:44;;;;;;;;;11.50;10.75;;;;;;;;6491242;31;8944;-59
2022/05/17 16:56:46;;;;;;;;;10.25;10.25;;;;;;;;6490880;39;8970;-58
2022/05/17 17:02:50;;;;;;;;;13.25;11.25;;;;;;;;6490834;39;8892;-58
2022/05/17 17:08:52;;;;;;;;;15.00;15.00;;;;;;;;6490327;46;8905;-59
2022/05/17 17:14:54;;;;;;;;;17.50;13.75;;;;;;;;6490173;39;9592;-59
2022/05/17 17:20:56;;;;;;;;;16.25;14.00;;;;;;;;6490661;39;8893;-58
2022/05/17 17:26:59;;;;;;;;;15.00;12.00;;;;;;;;6490100;31;8936;-58
2022/05/17 17:39:27;;;;;;;;;16.25;15.75;;;;;;;;6489507;46;8877;-58
2022/05/17 17:45:31;;;;;;;;;16.25;16.25;;;;;;;;6490425;39;8929;-58
2022/05/17 17:51:33;;;;;;;;;21.75;19.25;;;;;;;;6490382;47;8968;-59
2022/05/17 17:57:36;;;;;;;;;20.00;17.00;;;;;;;;6489429;39;8920;-61
2022/05/17 18:03:39;;;;;;;;;16.75;16.50;;;;;;;;6489787;47;8880;-58
2022/05/17 18:09:41;;;;;;;;;18.00;18.00;;;;;;;;6489582;31;8983;-59
2022/05/17 18:15:43;;;;;;;;;15.75;14.25;;;;;;;;6490139;39;8916;-58
2022/05/17 18:21:47;;;;;;;;;16.67;15.67;;;;;;;;6492340;31;8869;-58
2022/05/17 18:28:03;;;;;;;;;15.33;14.33;;;;;;;;6491405;46;8957;-59
2022/05/17 18:34:11;;;;;;;;;20.33;16.67;;;;;;;;6492506;39;9632;-58
2022/05/17 18:40:14;;;;;;;;;13.67;12.67;;;;;;;;6491659;31;8956;-59
2022/05/17 18:46:17;;;;;;;;;18.33;17.33;;;;;;;;6491460;32;8948;-58
2022/05/17 18:52:22;;;;;;;;;15.00;15.00;;;;;;;;6491578;31;9583;-59
2022/05/17 18:58:25;;;;;;;;;18.33;18.33;;;;;;;;6491235;46;8931;-58
2022/05/17 19:04:29;;;;;;;;;17.33;16.33;;;;;;;;6492222;39;8897;-59
2022/05/17 19:16:55;;;;;;;;;17.67;17.67;;;;;;;;6492640;39;9025;-59
2022/05/17 19:22:59;;;;;;;;;18.00;16.00;;;;;;;;6491813;39;8861;-59
2022/05/17 19:29:04;;;;;;;;;15.67;15.67;;;;;;;;6490339;46;8877;-57
2022/05/17 19:35:16;;;;;;;;;16.00;14.00;;;;;;;;6490923;31;9012;-58
2022/05/17 19:41:18;;;;;;;;;22.00;19.67;;;;;;;;6491169;31;8936;-58
2022/05/17 19:47:21;;;;;;;;;20.33;17.00;;;;;;;;6491159;39;9002;-58
2022/05/17 19:53:27;;;;;;;;;25.00;22.33;;;;;;;;6492142;31;8932;-59
2022/05/17 19:59:31;;;;;;;;;22.67;22.67;;;;;;;;6491108;39;9477;-59
2022/05/17 20:05:35;;;;;;;;;25.00;22.67;;;;;;;;6491127;31;8877;-58
2022/05/17 20:11:38;;;;;;;;;19.00;17.33;;;;;;;;6490486;46;8937;-58
2022/05/17 20:17:48;;;;;;;;;19.67;17.67;;;;;;;;6491384;46;8897;-57
2022/05/17 20:23:53;;;;;;;;;20.33;20.33;;;;;;;;6490048;46;8920;-58
2022/05/17 20:29:56;;;;;;;;;23.50;22.50;;;;;;;;6491169;31;9101;-57
2022/05/17 20:35:59;;;;;;;;;23.00;22.00;;;;;;;;6491038;31;8885;-58
2022/05/17 20:42:02;;;;;;;;;22.00;22.00;;;;;;;;6490567;31;9386;-57
2022/05/17 20:48:21;;;;;;;;;25.00;22.67;;;;;;;;6490353;46;8937;-58
2022/05/17 20:54:23;;;;;;;;;35.67;28.67;;;;;;;;6490329;39;8850;-57
2022/05/17 21:00:27;;;;;;;;;29.67;28.00;;;;;;;;6490548;46;8886;-58
2022/05/17 21:06:32;;;;;;;;;27.33;27.33;;;;;;;;6490629;39;8942;-57
2022/05/17 21:12:37;;;;;;;;;28.33;26.67;;;;;;;;6490305;31;8951;-57
2022/05/17 21:18:39;;;;;;;;;31.00;26.67;;;;;;;;6489709;46;8886;-57
2022/05/17 21:24:41;;;;;;;;;28.33;27.00;;;;;;;;6490185;39;8892;-58
2022/05/17 21:30:46;;;;;;;;;30.67;27.00;;;;;;;;6490549;39;8928;-57
2022/05/17 21:36:48;;;;;;;;;24.67;22.33;;;;;;;;6489940;39;9543;-57
2022/05/17 21:42:52;;;;;;;;;21.67;20.33;;;;;;;;6490110;39;8913;-58
2022/05/17 21:48:54;;;;;;;;;28.67;27.00;;;;;;;;6490424;46;8872;-58
2022/05/17 21:54:57;;;;;;;;;25.67;24.67;;;;;;;;6489264;47;8890;-58
2022/05/17 22:01:19;;;;;;;;;26.67;21.33;;;;;;;;6490549;39;8880;-58
2022/05/17 22:07:21;;;;;;;;;28.00;28.00;;;;;;;;6490047;39;8886;-57
2022/05/17 22:19:46;;;;;;;;;27.00;25.33;;;;;;;;6489014;47;8857;-57
2022/05/17 22:25:48;;;;;;;;;35.00;30.33;;;;;;;;6490006;31;8914;-57
2022/05/17 22:31:53;;;;;;;;;28.00;24.00;;;;;;;;6489495;47;8897;-56
2022/05/17 22:37:58;;;;;;;;;32.33;30.33;;;;;;;;6489710;39;8864;-58
2022/05/17 22:44:00;;;;;;;;;30.00;27.67;;;;;;;;6489809;39;8897;-55
2022/05/17 22:50:03;;;;;;;;;25.33;23.00;;;;;;;;6489419;39;8940;-58
2022/05/17 22:56:08;;;;;;;;;27.00;26.00;;;;;;;;6489392;47;8890;-57
2022/05/17 23:02:10;;;;;;;;;29.67;29.33;;;;;;;;6489487;47;8859;-57
2022/05/17 23:08:12;;;;;;;;;29.33;24.67;;;;;;;;6490653;46;8906;-58
2022/05/17 23:14:16;;;;;;;;;20.67;20.67;;;;;;;;6491857;31;8954;-57
2022/05/17 23:20:22;;;;;;;;;25.67;25.67;;;;;;;;6491809;46;8945;-57
2022/05/17 23:32:45;;;;;;;;;24.00;21.67;;;;;;;;6491927;31;8904;-57
2022/05/17 23:38:52;;;;;;;;;26.67;24.67;;;;;;;;6491139;39;8895;-57
2022/05/17 23:44:54;;;;;;;;;25.33;25.33;;;;;;;;6491449;31;8913;-59
2022/05/17 23:50:56;;;;;;;;;25.67;23.00;;;;;;;;6491413;39;9007;-58
2022/05/17 23:56:59;;;;;;;;;28.00;26.33;;;;;;;;6490936;39;8906;-58
